Site contains unofficial IBTrACS data. Visit the IBTrACS Website to access archived data.

1885 NOT_NAMED (1885021S16075)


IBTrACS version v04r00. Visit IBTrACS website for data access.
Please direct all questions to the IBTrACS Q and A forum

Storm track - Intensity - Wind Radii - Intensity Data - Source Data - All data

Summary Information

Storm ID 1885021S16075
Start Jan 21 06Z
End Jan 28 06Z
ATCF IDs
Track status Best track data.

Storm track plot

Map of storm track

Intensity plots

No Intensity information for this storm


Radial wind information

No radial wind information for this storm


Position and Intensity Table

BASIN ISO_TIME_________ NATURE LAT LON
degrees north degrees east
SI 1885-01-21 06:00:00 NR -15.90 75.20
SI 09:00:00 NR -15.99 74.78
SI 12:00:00 NR -16.08 74.37
SI 15:00:00 NR -16.18 73.97
SI 18:00:00 NR -16.30 73.60
SI 21:00:00 NR -16.44 73.26
SI 1885-01-22 00:00:00 NR -16.59 72.94
SI 03:00:00 NR -16.75 72.63
SI 06:00:00 NR -16.90 72.30
SI 09:00:00 NR -17.02 71.94
SI 12:00:00 NR -17.14 71.56
SI 15:00:00 NR -17.26 71.18
SI 18:00:00 NR -17.40 70.80
SI 21:00:00 NR -17.56 70.43
SI 1885-01-23 00:00:00 NR -17.74 70.06
SI 03:00:00 NR -17.92 69.68
SI 06:00:00 NR -18.10 69.30
SI 09:00:00 NR -18.24 68.91
SI 12:00:00 NR -18.38 68.51
SI 15:00:00 NR -18.53 68.11
SI 18:00:00 NR -18.70 67.70
SI 21:00:00 NR -18.92 67.25
SI 1885-01-24 00:00:00 NR -19.17 66.81
SI 03:00:00 NR -19.40 66.38
SI 06:00:00 NR -19.60 66.00
SI 09:00:00 NR -19.74 65.70
SI 12:00:00 NR -19.84 65.45
SI 15:00:00 NR -19.92 65.22
SI 18:00:00 NR -20.00 65.00
SI 21:00:00 NR -20.09 64.77
SI 1885-01-25 00:00:00 NR -20.18 64.54
SI 03:00:00 NR -20.28 64.29
SI 06:00:00 NR -20.40 64.00
SI 09:00:00 NR -20.55 63.67
SI 12:00:00 NR -20.72 63.29
SI 15:00:00 NR -20.91 62.90
SI 18:00:00 NR -21.10 62.50
SI 21:00:00 NR -21.30 62.11
SI 1885-01-26 00:00:00 NR -21.50 61.71
SI 03:00:00 NR -21.70 61.30
SI 06:00:00 NR -21.90 60.90
SI 09:00:00 NR -22.08 60.50
SI 12:00:00 NR -22.26 60.10
SI 15:00:00 NR -22.43 59.70
SI 18:00:00 NR -22.60 59.30
SI 21:00:00 NR -22.77 58.90
SI 1885-01-27 00:00:00 NR -22.93 58.51
SI 03:00:00 NR -23.11 58.11
SI 06:00:00 NR -23.30 57.70
SI 09:00:00 NR -23.51 57.27
SI 12:00:00 NR -23.74 56.84
SI 15:00:00 NR -23.97 56.41
SI 18:00:00 NR -24.20 56.00
SI 21:00:00 NR -24.41 55.62
SI 1885-01-28 00:00:00 NR -24.62 55.27
SI 03:00:00 NR -24.81 54.93
SI 06:00:00 NR -25.00 54.60

Source Information

Agency Information
USA
TOKYO
CMA
HKO
NEWDELHI
REUNION
BOM
NADI
WELLINGTON
DS824
TD9636 cons_worldwide_trop_cyclone_18710101-19891231-005:Line=1858
TD9635
NEUMANN
MLC

All available IBTrACS Data

SEASON BASIN SUBBASIN ISO_TIME_________ NATURE LAT LON DIST2LAND LANDFALL IFLAG USA SSHS TD9636 LAT TD9636 LON TD9636 STAGE STORM SPEED STORM DIR
Year degrees north degrees east km km 1 degrees north degrees east kts degrees
1885 SI MM 1885-01-21 06:00:00 NR -15.90 75.20 1902 1858 __________O___ -1 -15.90 75.20 7 8 258
1885 SI MM 09:00:00 NR -15.99 74.78 1858 1814 __________P___ -1 -15.99 74.78 7 8 257
1885 SI MM 12:00:00 NR -16.08 74.37 1814 1770 __________P___ -1 -16.08 74.37 7 8 256
1885 SI MM 15:00:00 NR -16.18 73.97 1770 1726 __________P___ -1 -16.18 73.97 7 8 253
1885 SI MM 18:00:00 NR -16.30 73.60 1726 1692 __________O___ -1 -16.30 73.60 7 7 249
1885 SI MM 21:00:00 NR -16.44 73.26 1692 1655 __________P___ -1 -16.44 73.26 7 7 245
1885 SI MM 1885-01-22 00:00:00 NR -16.59 72.94 1644 1611 __________P___ -1 -16.59 72.94 7 7 243
1885 SI MM 03:00:00 NR -16.75 72.63 1611 1574 __________P___ -1 -16.75 72.63 7 7 243
1885 SI MM 06:00:00 NR -16.90 72.30 1574 1540 __________O___ -1 -16.90 72.30 7 7 247
1885 SI MM 09:00:00 NR -17.02 71.94 1530 1496 __________P___ -1 -17.02 71.94 7 7 251
1885 SI MM 12:00:00 NR -17.14 71.56 1496 1449 __________P___ -1 -17.14 71.56 7 8 252
1885 SI MM 15:00:00 NR -17.26 71.18 1449 1405 __________P___ -1 -17.26 71.18 7 8 251
1885 SI MM 18:00:00 NR -17.40 70.80 1405 1358 __________O___ -1 -17.40 70.80 7 8 247
1885 SI MM 21:00:00 NR -17.56 70.43 1358 1325 __________P___ -1 -17.56 70.43 7 8 244
1885 SI MM 1885-01-23 00:00:00 NR -17.74 70.06 1325 1278 __________P___ -1 -17.74 70.06 7 8 243
1885 SI MM 03:00:00 NR -17.92 69.68 1278 1232 __________P___ -1 -17.92 69.68 7 8 244
1885 SI MM 06:00:00 NR -18.10 69.30 1232 1188 __________O___ -1 -18.10 69.30 7 8 246
1885 SI MM 09:00:00 NR -18.24 68.91 1188 1142 __________P___ -1 -18.24 68.91 7 8 249
1885 SI MM 12:00:00 NR -18.38 68.51 1142 1098 __________P___ -1 -18.38 68.51 7 8 249
1885 SI MM 15:00:00 NR -18.53 68.11 1098 1052 __________P___ -1 -18.53 68.11 7 8 248
1885 SI MM 18:00:00 NR -18.70 67.70 1052 1007 __________O___ -1 -18.70 67.70 7 9 244
1885 SI MM 21:00:00 NR -18.92 67.25 1007 949 __________P___ -1 -18.92 67.25 7 10 241
1885 SI MM 1885-01-24 00:00:00 NR -19.17 66.81 949 904 __________P___ -1 -19.17 66.81 7 10 240
1885 SI MM 03:00:00 NR -19.40 66.38 904 860 __________P___ -1 -19.40 66.38 7 9 240
1885 SI MM 06:00:00 NR -19.60 66.00 860 828 __________O___ -1 -19.60 66.00 7 7 242
1885 SI MM 09:00:00 NR -19.74 65.70 828 806 __________P___ -1 -19.74 65.70 7 6 246
1885 SI MM 12:00:00 NR -19.84 65.45 795 773 __________P___ -1 -19.84 65.45 7 5 248
1885 SI MM 15:00:00 NR -19.92 65.22 773 752 __________P___ -1 -19.92 65.22 7 5 249
1885 SI MM 18:00:00 NR -20.00 65.00 752 730 __________O___ -1 -20.00 65.00 7 5 248
1885 SI MM 21:00:00 NR -20.09 64.77 730 709 __________P___ -1 -20.09 64.77 7 5 248
1885 SI MM 1885-01-25 00:00:00 NR -20.18 64.54 698 677 __________P___ -1 -20.18 64.54 7 5 247
1885 SI MM 03:00:00 NR -20.28 64.29 677 646 __________P___ -1 -20.28 64.29 7 6 246
1885 SI MM 06:00:00 NR -20.40 64.00 646 615 __________O___ -1 -20.40 64.00 7 6 245
1885 SI MM 09:00:00 NR -20.55 63.67 615 574 __________P___ -1 -20.55 63.67 7 7 244
1885 SI MM 12:00:00 NR -20.72 63.29 574 534 __________P___ -1 -20.72 63.29 7 8 243
1885 SI MM 15:00:00 NR -20.91 62.90 534 496 __________P___ -1 -20.91 62.90 7 8 243
1885 SI MM 18:00:00 NR -21.10 62.50 496 460 __________O___ -1 -21.10 62.50 7 8 242
1885 SI MM 21:00:00 NR -21.30 62.11 460 426 __________P___ -1 -21.30 62.11 7 8 242
1885 SI MM 1885-01-26 00:00:00 NR -21.50 61.71 426 395 __________P___ -1 -21.50 61.71 7 9 241
1885 SI MM 03:00:00 NR -21.70 61.30 395 366 __________P___ -1 -21.70 61.30 7 9 242
1885 SI MM 06:00:00 NR -21.90 60.90 366 340 __________O___ -1 -21.90 60.90 7 8 243
1885 SI MM 09:00:00 NR -22.08 60.50 340 312 __________P___ -1 -22.08 60.50 7 8 244
1885 SI MM 12:00:00 NR -22.26 60.10 319 296 __________P___ -1 -22.26 60.10 7 8 245
1885 SI MM 15:00:00 NR -22.43 59.70 296 284 __________P___ -1 -22.43 59.70 7 8 245
1885 SI MM 18:00:00 NR -22.60 59.30 287 275 __________O___ -1 -22.60 59.30 7 8 245
1885 SI MM 21:00:00 NR -22.77 58.90 285 277 __________P___ -1 -22.77 58.90 7 8 245
1885 SI MM 1885-01-27 00:00:00 NR -22.93 58.51 280 280 __________P___ -1 -22.93 58.51 7 8 245
1885 SI MM 03:00:00 NR -23.11 58.11 293 292 __________P___ -1 -23.11 58.11 7 8 244
1885 SI MM 06:00:00 NR -23.30 57.70 296 286 __________O___ -1 -23.30 57.70 7 9 242
1885 SI MM 09:00:00 NR -23.51 57.27 290 284 __________P___ -1 -23.51 57.27 7 9 241
1885 SI MM 12:00:00 NR -23.74 56.84 285 285 __________P___ -1 -23.74 56.84 7 9 240
1885 SI MM 15:00:00 NR -23.97 56.41 302 299 __________P___ -1 -23.97 56.41 7 9 239
1885 SI MM 18:00:00 NR -24.20 56.00 315 314 __________O___ -1 -24.20 56.00 7 8 238
1885 SI MM 21:00:00 NR -24.41 55.62 335 335 __________P___ -1 -24.41 55.62 7 8 238
1885 SI MM 1885-01-28 00:00:00 NR -24.62 55.27 359 359 __________P___ -1 -24.62 55.27 7 7 238
1885 SI MM 03:00:00 NR -24.81 54.93 386 386 __________P___ -1 -24.81 54.93 7 7 238
1885 SI MM 06:00:00 NR -25.00 54.60 415 __________O___ -1 -25.00 54.60 7 7 237